sensor_id;sensor_type;location;lat;lon;timestamp;temperature;humidity
44855;DHT22;30591;48.228;16.398;2022-10-31T00:01:35;11.00;99.90
44855;DHT22;30591;48.228;16.398;2022-10-31T00:04:04;11.10;99.90
44855;DHT22;30591;48.228;16.398;2022-10-31T00:06:32;11.10;99.90
44855;DHT22;30591;48.228;16.398;2022-10-31T00:09:02;11.10;99.90
44855;DHT22;30591;48.228;16.398;2022-10-31T00:11:30;11.10;99.90
44855;DHT22;30591;48.228;16.398;2022-10-31T00:13:58;11.10;99.90
44855;DHT22;30591;48.228;16.398;2022-10-31T00:16:27;11.10;99.90
44855;DHT22;30591;48.228;16.398;2022-10-31T00:18:57;11.10;99.90
44855;DHT22;30591;48.228;16.398;2022-10-31T00:21:27;11.10;99.90
44855;DHT22;30591;48.228;16.398;2022-10-31T00:23:57;11.10;99.90
44855;DHT22;30591;48.228;16.398;2022-10-31T00:26:30;11.00;99.90
44855;DHT22;30591;48.228;16.398;2022-10-31T00:29:00;11.10;99.90
44855;DHT22;30591;48.228;16.398;2022-10-31T00:31:30;11.10;99.90
44855;DHT22;30591;48.228;16.398;2022-10-31T00:33:59;11.00;99.90
44855;DHT22;30591;48.228;16.398;2022-10-31T00:36:27;11.00;99.90
44855;DHT22;30591;48.228;16.398;2022-10-31T00:38:57;11.00;99.90
44855;DHT22;30591;48.228;16.398;2022-10-31T00:41:26;11.00;99.90
44855;DHT22;30591;48.228;16.398;2022-10-31T00:43:53;11.00;99.90
44855;DHT22;30591;48.228;16.398;2022-10-31T00:46:25;11.00;99.90
44855;DHT22;30591;48.228;16.398;2022-10-31T00:48:54;11.00;99.90
44855;DHT22;30591;48.228;16.398;2022-10-31T00:51:21;11.00;99.90
44855;DHT22;30591;48.228;16.398;2022-10-31T00:53:48;11.00;99.90
44855;DHT22;30591;48.228;16.398;2022-10-31T00:56:16;11.00;99.90
44855;DHT22;30591;48.228;16.398;2022-10-31T00:58:44;11.00;99.90
44855;DHT22;30591;48.228;16.398;2022-10-31T01:01:11;10.90;99.90
44855;DHT22;30591;48.228;16.398;2022-10-31T01:03:41;11.00;99.90
44855;DHT22;30591;48.228;16.398;2022-10-31T01:06:14;11.00;99.90
44855;DHT22;30591;48.228;16.398;2022-10-31T01:08:42;11.00;99.90
44855;DHT22;30591;48.228;16.398;2022-10-31T01:11:16;11.00;99.90
44855;DHT22;30591;48.228;16.398;2022-10-31T01:13:45;10.90;99.90
44855;DHT22;30591;48.228;16.398;2022-10-31T01:16:18;10.90;99.90
44855;DHT22;30591;48.228;16.398;2022-10-31T01:18:47;10.90;99.90
44855;DHT22;30591;48.228;16.398;2022-10-31T01:21:20;11.00;99.90
44855;DHT22;30591;48.228;16.398;2022-10-31T01:23:50;11.00;99.90
44855;DHT22;30591;48.228;16.398;2022-10-31T01:26:26;10.90;99.90
44855;DHT22;30591;48.228;16.398;2022-10-31T01:29:00;11.00;99.90
44855;DHT22;30591;48.228;16.398;2022-10-31T01:31:34;10.90;99.90
44855;DHT22;30591;48.228;16.398;2022-10-31T01:34:04;11.00;99.90
44855;DHT22;30591;48.228;16.398;2022-10-31T01:36:36;11.00;99.90
44855;DHT22;30591;48.228;16.398;2022-10-31T01:39:07;11.00;99.90
44855;DHT22;30591;48.228;16.398;2022-10-31T01:41:43;11.00;99.90
44855;DHT22;30591;48.228;16.398;2022-10-31T01:52:24;11.00;99.90
44855;DHT22;30591;48.228;16.398;2022-10-31T01:54:58;11.00;99.90
44855;DHT22;30591;48.228;16.398;2022-10-31T01:57:29;11.00;99.90
44855;DHT22;30591;48.228;16.398;2022-10-31T02:00:03;11.00;99.90
44855;DHT22;30591;48.228;16.398;2022-10-31T02:02:40;11.00;99.90
44855;DHT22;30591;48.228;16.398;2022-10-31T02:05:12;11.00;99.90
44855;DHT22;30591;48.228;16.398;2022-10-31T02:07:55;11.00;99.90
44855;DHT22;30591;48.228;16.398;2022-10-31T02:10:31;11.00;99.90
44855;DHT22;30591;48.228;16.398;2022-10-31T02:13:04;11.00;99.90
44855;DHT22;30591;48.228;16.398;2022-10-31T02:15:36;11.00;99.90
44855;DHT22;30591;48.228;16.398;2022-10-31T02:18:05;11.00;99.90
44855;DHT22;30591;48.228;16.398;2022-10-31T02:23:42;11.00;99.90
44855;DHT22;30591;48.228;16.398;2022-10-31T02:26:38;11.00;99.90
44855;DHT22;30591;48.228;16.398;2022-10-31T02:32:25;11.00;99.90
44855;DHT22;30591;48.228;16.398;2022-10-31T02:40:57;11.00;99.90
44855;DHT22;30591;48.228;16.398;2022-10-31T02:43:58;11.00;99.90
44855;DHT22;30591;48.228;16.398;2022-10-31T02:46:48;11.00;99.90
44855;DHT22;30591;48.228;16.398;2022-10-31T02:52:24;10.90;99.90
44855;DHT22;30591;48.228;16.398;2022-10-31T02:54:55;10.90;99.90
44855;DHT22;30591;48.228;16.398;2022-10-31T02:57:32;10.90;99.90
44855;DHT22;30591;48.228;16.398;2022-10-31T03:00:05;10.90;99.90
44855;DHT22;30591;48.228;16.398;2022-10-31T03:02:42;10.80;99.90
44855;DHT22;30591;48.228;16.398;2022-10-31T03:10:58;11.00;99.90
44855;DHT22;30591;48.228;16.398;2022-10-31T03:13:50;11.00;99.90
44855;DHT22;30591;48.228;16.398;2022-10-31T03:18:59;10.90;99.90
44855;DHT22;30591;48.228;16.398;2022-10-31T03:21:39;10.90;99.90
44855;DHT22;30591;48.228;16.398;2022-10-31T03:24:09;10.90;99.90
44855;DHT22;30591;48.228;16.398;2022-10-31T03:26:51;10.90;99.90
44855;DHT22;30591;48.228;16.398;2022-10-31T03:29:23;10.90;99.90
44855;DHT22;30591;48.228;16.398;2022-10-31T03:32:19;10.90;99.90
44855;DHT22;30591;48.228;16.398;2022-10-31T03:34:49;10.90;99.90
44855;DHT22;30591;48.228;16.398;2022-10-31T03:37:19;10.90;99.90
44855;DHT22;30591;48.228;16.398;2022-10-31T03:39:49;10.90;99.90
44855;DHT22;30591;48.228;16.398;2022-10-31T03:42:24;10.90;99.90
44855;DHT22;30591;48.228;16.398;2022-10-31T03:45:11;10.80;99.90
44855;DHT22;30591;48.228;16.398;2022-10-31T03:47:42;10.80;99.90
44855;DHT22;30591;48.228;16.398;2022-10-31T03:50:12;10.80;99.90
44855;DHT22;30591;48.228;16.398;2022-10-31T03:53:04;10.90;99.90
44855;DHT22;30591;48.228;16.398;2022-10-31T03:56:18;10.80;99.90
44855;DHT22;30591;48.228;16.398;2022-10-31T04:01:40;10.80;99.90
44855;DHT22;30591;48.228;16.398;2022-10-31T04:04:10;10.80;99.90
44855;DHT22;30591;48.228;16.398;2022-10-31T04:06:41;10.80;99.90
44855;DHT22;30591;48.228;16.398;2022-10-31T04:09:10;10.80;99.90
44855;DHT22;30591;48.228;16.398;2022-10-31T04:11:46;10.80;99.90
44855;DHT22;30591;48.228;16.398;2022-10-31T04:14:38;10.80;99.90
44855;DHT22;30591;48.228;16.398;2022-10-31T04:17:13;10.80;99.90
44855;DHT22;30591;48.228;16.398;2022-10-31T04:19:42;10.80;99.90
44855;DHT22;30591;48.228;16.398;2022-10-31T04:22:10;10.80;99.90
44855;DHT22;30591;48.228;16.398;2022-10-31T04:24:41;10.80;99.90
44855;DHT22;30591;48.228;16.398;2022-10-31T04:27:14;10.80;99.90
44855;DHT22;30591;48.228;16.398;2022-10-31T04:29:43;10.80;99.90
44855;DHT22;30591;48.228;16.398;2022-10-31T04:32:17;10.80;99.90
44855;DHT22;30591;48.228;16.398;2022-10-31T04:34:46;10.80;99.90
44855;DHT22;30591;48.228;16.398;2022-10-31T04:37:13;10.80;99.90
44855;DHT22;30591;48.228;16.398;2022-10-31T04:39:41;10.80;99.90
44855;DHT22;30591;48.228;16.398;2022-10-31T04:42:32;10.80;99.90
44855;DHT22;30591;48.228;16.398;2022-10-31T04:45:05;10.80;99.90
44855;DHT22;30591;48.228;16.398;2022-10-31T04:47:35;10.80;99.90
44855;DHT22;30591;48.228;16.398;2022-10-31T04:50:03;10.80;99.90
44855;DHT22;30591;48.228;16.398;2022-10-31T04:52:42;10.80;99.90
44855;DHT22;30591;48.228;16.398;2022-10-31T04:55:14;10.80;99.90
44855;DHT22;30591;48.228;16.398;2022-10-31T04:58:00;10.80;99.90
44855;DHT22;30591;48.228;16.398;2022-10-31T05:00:29;10.80;99.90
44855;DHT22;30591;48.228;16.398;2022-10-31T05:02:58;10.80;99.90
44855;DHT22;30591;48.228;16.398;2022-10-31T05:05:29;10.80;99.90
44855;DHT22;30591;48.228;16.398;2022-10-31T05:08:00;10.80;99.90
44855;DHT22;30591;48.228;16.398;2022-10-31T05:10:31;10.80;99.90
44855;DHT22;30591;48.228;16.398;2022-10-31T05:13:02;10.80;99.90
44855;DHT22;30591;48.228;16.398;2022-10-31T05:15:49;10.80;99.90
44855;DHT22;30591;48.228;16.398;2022-10-31T05:18:22;10.70;99.90
44855;DHT22;30591;48.228;16.398;2022-10-31T05:21:10;10.70;99.90
44855;DHT22;30591;48.228;16.398;2022-10-31T05:23:48;10.70;99.90
44855;DHT22;30591;48.228;16.398;2022-10-31T05:26:16;10.70;99.90
44855;DHT22;30591;48.228;16.398;2022-10-31T05:28:44;10.70;99.90
44855;DHT22;30591;48.228;16.398;2022-10-31T05:31:11;10.70;99.90
44855;DHT22;30591;48.228;16.398;2022-10-31T05:33:39;10.70;99.90
44855;DHT22;30591;48.228;16.398;2022-10-31T05:36:39;10.80;99.90
44855;DHT22;30591;48.228;16.398;2022-10-31T05:39:14;10.80;99.90
44855;DHT22;30591;48.228;16.398;2022-10-31T05:41:48;10.80;99.90
44855;DHT22;30591;48.228;16.398;2022-10-31T05:44:25;10.80;99.90
44855;DHT22;30591;48.228;16.398;2022-10-31T05:47:23;10.80;99.90
44855;DHT22;30591;48.228;16.398;2022-10-31T05:50:24;10.80;99.90
44855;DHT22;30591;48.228;16.398;2022-10-31T05:53:05;10.90;99.90
44855;DHT22;30591;48.228;16.398;2022-10-31T05:55:42;10.90;99.90
44855;DHT22;30591;48.228;16.398;2022-10-31T05:58:18;10.90;99.90
44855;DHT22;30591;48.228;16.398;2022-10-31T06:01:00;10.90;99.90
44855;DHT22;30591;48.228;16.398;2022-10-31T06:03:29;10.90;99.90
44855;DHT22;30591;48.228;16.398;2022-10-31T06:06:03;10.80;99.90
44855;DHT22;30591;48.228;16.398;2022-10-31T06:08:36;10.80;99.90
44855;DHT22;30591;48.228;16.398;2022-10-31T06:11:10;10.80;99.90
44855;DHT22;30591;48.228;16.398;2022-10-31T06:13:56;10.80;99.90
44855;DHT22;30591;48.228;16.398;2022-10-31T06:16:34;10.80;99.90
44855;DHT22;30591;48.228;16.398;2022-10-31T06:19:21;10.90;99.90
44855;DHT22;30591;48.228;16.398;2022-10-31T06:21:54;10.90;99.90
44855;DHT22;30591;48.228;16.398;2022-10-31T06:24:22;10.90;99.90
44855;DHT22;30591;48.228;16.398;2022-10-31T06:26:53;10.90;99.90
44855;DHT22;30591;48.228;16.398;2022-10-31T06:29:21;10.90;99.90
44855;DHT22;30591;48.228;16.398;2022-10-31T06:32:04;10.90;99.90
44855;DHT22;30591;48.228;16.398;2022-10-31T06:34:40;11.00;99.90
44855;DHT22;30591;48.228;16.398;2022-10-31T06:37:15;10.90;99.90
44855;DHT22;30591;48.228;16.398;2022-10-31T06:39:47;10.90;99.90
44855;DHT22;30591;48.228;16.398;2022-10-31T06:42:17;10.90;99.90
44855;DHT22;30591;48.228;16.398;2022-10-31T06:44:47;11.00;99.90
44855;DHT22;30591;48.228;16.398;2022-10-31T06:47:50;11.00;99.90
44855;DHT22;30591;48.228;16.398;2022-10-31T06:50:51;11.00;99.90
44855;DHT22;30591;48.228;16.398;2022-10-31T06:53:27;11.00;99.90
44855;DHT22;30591;48.228;16.398;2022-10-31T06:56:02;11.10;99.90
44855;DHT22;30591;48.228;16.398;2022-10-31T06:58:34;11.10;99.90
44855;DHT22;30591;48.228;16.398;2022-10-31T07:01:12;11.10;99.90
44855;DHT22;30591;48.228;16.398;2022-10-31T07:03:40;11.10;99.90
44855;DHT22;30591;48.228;16.398;2022-10-31T07:06:09;11.10;99.90
44855;DHT22;30591;48.228;16.398;2022-10-31T07:08:38;11.10;99.90
44855;DHT22;30591;48.228;16.398;2022-10-31T07:11:08;11.00;99.90
44855;DHT22;30591;48.228;16.398;2022-10-31T07:13:38;11.00;99.90
44855;DHT22;30591;48.228;16.398;2022-10-31T07:16:08;11.00;99.90
44855;DHT22;30591;48.228;16.398;2022-10-31T07:18:42;11.10;99.90
44855;DHT22;30591;48.228;16.398;2022-10-31T07:21:10;11.10;99.90
44855;DHT22;30591;48.228;16.398;2022-10-31T07:23:40;11.10;99.90
44855;DHT22;30591;48.228;16.398;2022-10-31T07:26:27;11.00;99.90
44855;DHT22;30591;48.228;16.398;2022-10-31T07:28:55;11.10;99.90
44855;DHT22;30591;48.228;16.398;2022-10-31T07:31:25;11.20;99.90
44855;DHT22;30591;48.228;16.398;2022-10-31T07:33:58;11.10;99.90
44855;DHT22;30591;48.228;16.398;2022-10-31T07:36:29;11.10;99.90
44855;DHT22;30591;48.228;16.398;2022-10-31T07:39:02;11.30;99.90
44855;DHT22;30591;48.228;16.398;2022-10-31T07:41:34;11.30;99.90
44855;DHT22;30591;48.228;16.398;2022-10-31T07:44:02;11.30;99.90
44855;DHT22;30591;48.228;16.398;2022-10-31T07:46:29;11.20;99.90
44855;DHT22;30591;48.228;16.398;2022-10-31T07:49:20;11.20;99.90
44855;DHT22;30591;48.228;16.398;2022-10-31T07:52:07;11.10;99.90
44855;DHT22;30591;48.228;16.398;2022-10-31T07:54:41;11.20;99.90
44855;DHT22;30591;48.228;16.398;2022-10-31T07:57:09;11.20;99.90
44855;DHT22;30591;48.228;16.398;2022-10-31T07:59:38;11.20;99.90
44855;DHT22;30591;48.228;16.398;2022-10-31T08:02:16;11.20;99.90
44855;DHT22;30591;48.228;16.398;2022-10-31T08:05:03;11.10;99.90
44855;DHT22;30591;48.228;16.398;2022-10-31T08:07:50;11.10;99.90
44855;DHT22;30591;48.228;16.398;2022-10-31T08:10:22;11.10;99.90
44855;DHT22;30591;48.228;16.398;2022-10-31T08:13:08;11.10;99.90
44855;DHT22;30591;48.228;16.398;2022-10-31T08:15:41;11.10;99.90
44855;DHT22;30591;48.228;16.398;2022-10-31T08:18:12;11.20;99.90
44855;DHT22;30591;48.228;16.398;2022-10-31T08:20:43;11.20;99.90
44855;DHT22;30591;48.228;16.398;2022-10-31T08:23:12;11.20;99.90
44855;DHT22;30591;48.228;16.398;2022-10-31T08:25:43;11.10;99.90
44855;DHT22;30591;48.228;16.398;2022-10-31T08:28:25;11.10;99.90
44855;DHT22;30591;48.228;16.398;2022-10-31T08:30:57;11.20;99.90
44855;DHT22;30591;48.228;16.398;2022-10-31T08:33:40;11.10;99.90
44855;DHT22;30591;48.228;16.398;2022-10-31T08:36:29;11.20;99.90
44855;DHT22;30591;48.228;16.398;2022-10-31T08:39:18;11.20;99.90
44855;DHT22;30591;48.228;16.398;2022-10-31T08:41:47;11.20;99.90
44855;DHT22;30591;48.228;16.398;2022-10-31T08:44:14;11.30;99.90
44855;DHT22;30591;48.228;16.398;2022-10-31T08:46:47;11.40;99.90
44855;DHT22;30591;48.228;16.398;2022-10-31T08:49:14;11.40;99.90
44855;DHT22;30591;48.228;16.398;2022-10-31T08:51:43;11.40;99.90
44855;DHT22;30591;48.228;16.398;2022-10-31T08:54:12;11.40;99.90
44855;DHT22;30591;48.228;16.398;2022-10-31T08:56:55;11.30;99.90
44855;DHT22;30591;48.228;16.398;2022-10-31T08:59:45;11.40;99.90
44855;DHT22;30591;48.228;16.398;2022-10-31T09:02:26;11.30;99.90
44855;DHT22;30591;48.228;16.398;2022-10-31T09:05:08;11.40;99.90
44855;DHT22;30591;48.228;16.398;2022-10-31T09:07:36;11.30;99.90
44855;DHT22;30591;48.228;16.398;2022-10-31T09:10:04;11.30;99.90
44855;DHT22;30591;48.228;16.398;2022-10-31T09:12:45;11.40;99.90
44855;DHT22;30591;48.228;16.398;2022-10-31T09:15:34;11.40;99.90
44855;DHT22;30591;48.228;16.398;2022-10-31T09:18:22;11.40;99.90
44855;DHT22;30591;48.228;16.398;2022-10-31T09:21:00;11.40;99.90
44855;DHT22;30591;48.228;16.398;2022-10-31T09:23:33;11.50;99.90
44855;DHT22;30591;48.228;16.398;2022-10-31T09:26:01;11.40;99.90
44855;DHT22;30591;48.228;16.398;2022-10-31T09:28:36;11.30;99.90
44855;DHT22;30591;48.228;16.398;2022-10-31T09:31:14;11.40;99.90
44855;DHT22;30591;48.228;16.398;2022-10-31T09:33:53;11.50;99.90
44855;DHT22;30591;48.228;16.398;2022-10-31T09:36:40;11.50;99.90
44855;DHT22;30591;48.228;16.398;2022-10-31T09:39:13;11.50;99.90
44855;DHT22;30591;48.228;16.398;2022-10-31T09:42:07;11.50;99.90
44855;DHT22;30591;48.228;16.398;2022-10-31T09:45:15;11.40;99.90
44855;DHT22;30591;48.228;16.398;2022-10-31T09:50:42;11.60;99.90
44855;DHT22;30591;48.228;16.398;2022-10-31T09:53:44;11.60;99.90
44855;DHT22;30591;48.228;16.398;2022-10-31T09:56:22;11.70;99.90
44855;DHT22;30591;48.228;16.398;2022-10-31T09:58:57;11.70;99.90
44855;DHT22;30591;48.228;16.398;2022-10-31T10:01:50;11.70;99.90
44855;DHT22;30591;48.228;16.398;2022-10-31T10:10:04;11.60;99.90
44855;DHT22;30591;48.228;16.398;2022-10-31T10:33:29;11.60;99.90
44855;DHT22;30591;48.228;16.398;2022-10-31T10:36:26;11.50;99.90
44855;DHT22;30591;48.228;16.398;2022-10-31T10:39:03;11.50;99.90
44855;DHT22;30591;48.228;16.398;2022-10-31T10:41:49;11.60;99.90
44855;DHT22;30591;48.228;16.398;2022-10-31T10:44:42;11.50;99.90
44855;DHT22;30591;48.228;16.398;2022-10-31T10:47:42;11.50;99.90
44855;DHT22;30591;48.228;16.398;2022-10-31T10:50:20;11.60;99.90
44855;DHT22;30591;48.228;16.398;2022-10-31T10:55:34;11.70;99.90
44855;DHT22;30591;48.228;16.398;2022-10-31T10:58:09;11.80;99.90
44855;DHT22;30591;48.228;16.398;2022-10-31T11:00:42;11.80;99.90
44855;DHT22;30591;48.228;16.398;2022-10-31T11:03:10;11.90;99.90
44855;DHT22;30591;48.228;16.398;2022-10-31T11:05:56;11.90;99.90
44855;DHT22;30591;48.228;16.398;2022-10-31T11:08:32;11.90;99.90
44855;DHT22;30591;48.228;16.398;2022-10-31T11:13:36;11.80;99.90
44855;DHT22;30591;48.228;16.398;2022-10-31T11:16:05;11.80;99.90
44855;DHT22;30591;48.228;16.398;2022-10-31T11:18:38;11.80;99.90
44855;DHT22;30591;48.228;16.398;2022-10-31T11:21:27;11.90;99.90
44855;DHT22;30591;48.228;16.398;2022-10-31T11:26:45;11.80;99.90
44855;DHT22;30591;48.228;16.398;2022-10-31T11:29:25;11.70;99.90
44855;DHT22;30591;48.228;16.398;2022-10-31T11:31:58;11.70;99.90
44855;DHT22;30591;48.228;16.398;2022-10-31T11:34:37;11.70;99.90
44855;DHT22;30591;48.228;16.398;2022-10-31T11:39:49;11.70;99.90
44855;DHT22;30591;48.228;16.398;2022-10-31T11:42:26;11.80;99.90
44855;DHT22;30591;48.228;16.398;2022-10-31T11:44:54;11.70;99.90
44855;DHT22;30591;48.228;16.398;2022-10-31T11:47:30;11.70;99.90
44855;DHT22;30591;48.228;16.398;2022-10-31T11:50:08;11.70;99.90
44855;DHT22;30591;48.228;16.398;2022-10-31T11:52:38;11.70;99.90
44855;DHT22;30591;48.228;16.398;2022-10-31T11:57:49;11.70;99.90
44855;DHT22;30591;48.228;16.398;2022-10-31T12:00:29;11.70;99.90
44855;DHT22;30591;48.228;16.398;2022-10-31T12:06:23;11.80;99.90
44855;DHT22;30591;48.228;16.398;2022-10-31T12:08:52;11.90;99.90
44855;DHT22;30591;48.228;16.398;2022-10-31T12:12:05;11.80;99.90
44855;DHT22;30591;48.228;16.398;2022-10-31T12:22:46;11.70;99.90
44855;DHT22;30591;48.228;16.398;2022-10-31T12:39:42;11.60;99.90
44855;DHT22;30591;48.228;16.398;2022-10-31T12:42:18;11.70;99.90
44855;DHT22;30591;48.228;16.398;2022-10-31T12:45:23;11.70;99.90
44855;DHT22;30591;48.228;16.398;2022-10-31T12:51:29;11.60;99.90
44855;DHT22;30591;48.228;16.398;2022-10-31T13:00:12;11.70;99.90
44855;DHT22;30591;48.228;16.398;2022-10-31T13:05:56;11.60;99.90
44855;DHT22;30591;48.228;16.398;2022-10-31T13:08:58;11.60;99.90
44855;DHT22;30591;48.228;16.398;2022-10-31T13:11:35;11.60;99.90
44855;DHT22;30591;48.228;16.398;2022-10-31T13:14:25;11.60;99.90
44855;DHT22;30591;48.228;16.398;2022-10-31T13:16:55;11.60;99.90
44855;DHT22;30591;48.228;16.398;2022-10-31T13:19:30;11.50;99.90
44855;DHT22;30591;48.228;16.398;2022-10-31T13:22:04;11.50;99.90
44855;DHT22;30591;48.228;16.398;2022-10-31T13:24:46;11.50;99.90
44855;DHT22;30591;48.228;16.398;2022-10-31T13:27:29;11.50;99.90
44855;DHT22;30591;48.228;16.398;2022-10-31T13:30:03;11.50;99.90
44855;DHT22;30591;48.228;16.398;2022-10-31T13:36:21;11.60;99.90
44855;DHT22;30591;48.228;16.398;2022-10-31T13:44:05;11.60;99.90
44855;DHT22;30591;48.228;16.398;2022-10-31T13:46:38;11.60;99.90
44855;DHT22;30591;48.228;16.398;2022-10-31T13:54:36;11.50;99.90
44855;DHT22;30591;48.228;16.398;2022-10-31T14:00:22;11.50;99.90
44855;DHT22;30591;48.228;16.398;2022-10-31T14:02:56;11.50;99.90
44855;DHT22;30591;48.228;16.398;2022-10-31T14:05:35;11.50;99.90
44855;DHT22;30591;48.228;16.398;2022-10-31T14:08:04;11.50;99.90
44855;DHT22;30591;48.228;16.398;2022-10-31T14:10:36;11.50;99.90
44855;DHT22;30591;48.228;16.398;2022-10-31T14:13:24;11.50;99.90
44855;DHT22;30591;48.228;16.398;2022-10-31T14:16:19;11.40;99.90
44855;DHT22;30591;48.228;16.398;2022-10-31T14:19:01;11.40;99.90
44855;DHT22;30591;48.228;16.398;2022-10-31T14:21:36;11.40;99.90
44855;DHT22;30591;48.228;16.398;2022-10-31T14:26:55;11.40;99.90
44855;DHT22;30591;48.228;16.398;2022-10-31T14:29:28;11.40;99.90
44855;DHT22;30591;48.228;16.398;2022-10-31T14:34:55;11.40;99.90
44855;DHT22;30591;48.228;16.398;2022-10-31T14:44:32;11.40;99.90
44855;DHT22;30591;48.228;16.398;2022-10-31T14:52:24;11.30;99.90
44855;DHT22;30591;48.228;16.398;2022-10-31T14:54:54;11.30;99.90
44855;DHT22;30591;48.228;16.398;2022-10-31T14:57:24;11.30;99.90
44855;DHT22;30591;48.228;16.398;2022-10-31T14:59:59;11.30;99.90
44855;DHT22;30591;48.228;16.398;2022-10-31T15:02:38;11.30;99.90
44855;DHT22;30591;48.228;16.398;2022-10-31T15:05:09;11.30;99.90
44855;DHT22;30591;48.228;16.398;2022-10-31T15:07:49;11.30;99.90
44855;DHT22;30591;48.228;16.398;2022-10-31T15:10:29;11.30;99.90
44855;DHT22;30591;48.228;16.398;2022-10-31T15:13:17;11.20;99.90
44855;DHT22;30591;48.228;16.398;2022-10-31T15:15:46;11.20;99.90
44855;DHT22;30591;48.228;16.398;2022-10-31T15:18:24;11.20;99.90
44855;DHT22;30591;48.228;16.398;2022-10-31T15:20:54;11.10;99.90
44855;DHT22;30591;48.228;16.398;2022-10-31T15:23:28;11.10;99.90
44855;DHT22;30591;48.228;16.398;2022-10-31T15:26:03;11.10;99.90
44855;DHT22;30591;48.228;16.398;2022-10-31T15:28:33;11.10;99.90
44855;DHT22;30591;48.228;16.398;2022-10-31T15:31:02;11.10;99.90
44855;DHT22;30591;48.228;16.398;2022-10-31T15:33:39;11.10;99.90
44855;DHT22;30591;48.228;16.398;2022-10-31T15:36:20;11.10;99.90
44855;DHT22;30591;48.228;16.398;2022-10-31T15:38:55;11.10;99.90
44855;DHT22;30591;48.228;16.398;2022-10-31T15:41:53;11.10;99.90
44855;DHT22;30591;48.228;16.398;2022-10-31T15:44:34;11.10;99.90
44855;DHT22;30591;48.228;16.398;2022-10-31T15:47:12;11.10;99.90
44855;DHT22;30591;48.228;16.398;2022-10-31T15:49:54;11.10;99.90
44855;DHT22;30591;48.228;16.398;2022-10-31T15:52:46;11.00;99.90
44855;DHT22;30591;48.228;16.398;2022-10-31T15:55:24;11.00;99.90
44855;DHT22;30591;48.228;16.398;2022-10-31T15:58:04;11.00;99.90
44855;DHT22;30591;48.228;16.398;2022-10-31T16:00:38;11.00;99.90
44855;DHT22;30591;48.228;16.398;2022-10-31T16:03:29;11.00;99.90
44855;DHT22;30591;48.228;16.398;2022-10-31T16:06:03;11.00;99.90
44855;DHT22;30591;48.228;16.398;2022-10-31T16:08:52;11.00;99.90
44855;DHT22;30591;48.228;16.398;2022-10-31T16:11:34;11.00;99.90
44855;DHT22;30591;48.228;16.398;2022-10-31T16:14:30;11.00;99.90
44855;DHT22;30591;48.228;16.398;2022-10-31T16:17:01;11.00;99.90
44855;DHT22;30591;48.228;16.398;2022-10-31T16:19:30;10.90;99.90
44855;DHT22;30591;48.228;16.398;2022-10-31T16:22:09;10.90;99.90
44855;DHT22;30591;48.228;16.398;2022-10-31T16:27:54;10.90;99.90
44855;DHT22;30591;48.228;16.398;2022-10-31T16:30:44;10.80;99.90
44855;DHT22;30591;48.228;16.398;2022-10-31T16:33:29;10.80;99.90
44855;DHT22;30591;48.228;16.398;2022-10-31T16:36:29;10.80;99.90
44855;DHT22;30591;48.228;16.398;2022-10-31T16:39:03;10.80;99.90
44855;DHT22;30591;48.228;16.398;2022-10-31T16:41:52;10.80;99.90
44855;DHT22;30591;48.228;16.398;2022-10-31T16:44:26;10.80;99.90
44855;DHT22;30591;48.228;16.398;2022-10-31T16:49:38;10.80;99.90
44855;DHT22;30591;48.228;16.398;2022-10-31T16:52:05;10.70;99.90
44855;DHT22;30591;48.228;16.398;2022-10-31T16:54:34;10.80;99.90
44855;DHT22;30591;48.228;16.398;2022-10-31T16:57:03;10.70;99.90
44855;DHT22;30591;48.228;16.398;2022-10-31T16:59:31;10.70;99.90
44855;DHT22;30591;48.228;16.398;2022-10-31T17:02:01;10.70;99.90
44855;DHT22;30591;48.228;16.398;2022-10-31T17:04:31;10.70;99.90
44855;DHT22;30591;48.228;16.398;2022-10-31T17:07:00;10.70;99.90
44855;DHT22;30591;48.228;16.398;2022-10-31T17:09:28;10.70;99.90
44855;DHT22;30591;48.228;16.398;2022-10-31T17:12:01;10.70;99.90
44855;DHT22;30591;48.228;16.398;2022-10-31T17:14:31;10.60;99.90
44855;DHT22;30591;48.228;16.398;2022-10-31T17:17:04;10.70;99.90
44855;DHT22;30591;48.228;16.398;2022-10-31T17:19:33;10.70;99.90
44855;DHT22;30591;48.228;16.398;2022-10-31T17:22:01;10.70;99.90
44855;DHT22;30591;48.228;16.398;2022-10-31T17:24:30;10.70;99.90
44855;DHT22;30591;48.228;16.398;2022-10-31T17:26:59;10.60;99.90
44855;DHT22;30591;48.228;16.398;2022-10-31T17:29:26;10.60;99.90
44855;DHT22;30591;48.228;16.398;2022-10-31T17:31:53;10.60;99.90
44855;DHT22;30591;48.228;16.398;2022-10-31T17:34:24;10.60;99.90
44855;DHT22;30591;48.228;16.398;2022-10-31T17:36:52;10.60;99.90
44855;DHT22;30591;48.228;16.398;2022-10-31T17:39:21;10.60;99.90
44855;DHT22;30591;48.228;16.398;2022-10-31T17:41:57;10.70;99.90
44855;DHT22;30591;48.228;16.398;2022-10-31T17:44:26;10.60;99.90
44855;DHT22;30591;48.228;16.398;2022-10-31T17:46:53;10.60;99.90
44855;DHT22;30591;48.228;16.398;2022-10-31T17:49:25;10.60;99.90
44855;DHT22;30591;48.228;16.398;2022-10-31T17:51:54;10.50;99.90
44855;DHT22;30591;48.228;16.398;2022-10-31T17:54:22;10.60;99.90
44855;DHT22;30591;48.228;16.398;2022-10-31T17:56:52;10.60;99.90
44855;DHT22;30591;48.228;16.398;2022-10-31T17:59:20;10.50;99.90
44855;DHT22;30591;48.228;16.398;2022-10-31T18:01:48;10.60;99.90
44855;DHT22;30591;48.228;16.398;2022-10-31T18:04:23;10.50;99.90
44855;DHT22;30591;48.228;16.398;2022-10-31T18:06:51;10.50;99.90
44855;DHT22;30591;48.228;16.398;2022-10-31T18:09:20;10.50;99.90
44855;DHT22;30591;48.228;16.398;2022-10-31T18:11:49;10.50;99.90
44855;DHT22;30591;48.228;16.398;2022-10-31T18:14:17;10.50;99.90
44855;DHT22;30591;48.228;16.398;2022-10-31T18:16:51;10.50;99.90
44855;DHT22;30591;48.228;16.398;2022-10-31T18:19:18;10.50;99.90
44855;DHT22;30591;48.228;16.398;2022-10-31T18:21:45;10.50;99.90
44855;DHT22;30591;48.228;16.398;2022-10-31T18:24:13;10.50;99.90
44855;DHT22;30591;48.228;16.398;2022-10-31T18:26:41;10.50;99.90
44855;DHT22;30591;48.228;16.398;2022-10-31T18:29:09;10.50;99.90
44855;DHT22;30591;48.228;16.398;2022-10-31T18:31:37;10.50;99.90
44855;DHT22;30591;48.228;16.398;2022-10-31T18:34:05;10.50;99.90
44855;DHT22;30591;48.228;16.398;2022-10-31T18:36:37;10.50;99.90
44855;DHT22;30591;48.228;16.398;2022-10-31T18:39:04;10.50;99.90
44855;DHT22;30591;48.228;16.398;2022-10-31T18:41:33;10.50;99.90
44855;DHT22;30591;48.228;16.398;2022-10-31T18:44:01;10.40;99.90